createdAt,value
2023-01-13T00:02:05.432Z,9.89
2023-01-13T00:07:06.829Z,9.83
2023-01-13T00:12:08.298Z,9.80
2023-01-13T00:17:09.751Z,9.80
2023-01-13T00:22:11.069Z,9.82
2023-01-13T00:27:12.386Z,9.79
2023-01-13T00:32:13.709Z,9.68
2023-01-13T00:37:15.120Z,9.59
2023-01-13T00:42:35.145Z,9.52
2023-01-13T00:47:36.551Z,9.49
2023-01-13T00:52:37.885Z,9.50
2023-01-13T00:57:40.018Z,9.51
2023-01-13T01:02:41.459Z,9.49
2023-01-13T01:07:42.783Z,9.52
2023-01-13T01:12:44.106Z,9.56
2023-01-13T01:17:45.454Z,9.62
2023-01-13T01:22:46.798Z,9.65
2023-01-13T01:27:48.151Z,9.73
2023-01-13T01:32:49.663Z,9.73
2023-01-13T01:37:50.998Z,9.79
2023-01-13T01:43:11.176Z,9.79
2023-01-13T01:48:12.566Z,9.80
2023-01-13T01:53:17.561Z,9.80
2023-01-13T01:58:21.752Z,9.82
2023-01-13T02:03:23.126Z,9.79
2023-01-13T02:08:24.925Z,9.82
2023-01-13T02:13:26.298Z,9.84
2023-01-13T02:18:27.604Z,9.88
2023-01-13T02:24:13.208Z,9.87
2023-01-13T02:30:04.201Z,9.84
2023-01-13T02:35:13.347Z,9.81
2023-01-13T02:40:20.773Z,9.78
2023-01-13T02:45:26.350Z,9.74
2023-01-13T02:50:42.898Z,9.71
2023-01-13T02:55:46.720Z,9.73
2023-01-13T03:00:48.957Z,9.80
2023-01-13T03:05:52.208Z,9.92
2023-01-13T03:10:59.845Z,10.04
2023-01-13T03:16:03.909Z,10.13
2023-01-13T03:21:05.269Z,10.17
2023-01-13T03:26:14.170Z,10.20
2023-01-13T03:31:21.832Z,10.23
2023-01-13T03:36:25.720Z,10.24
2023-01-13T03:41:34.589Z,10.25
2023-01-13T03:46:43.475Z,10.27
2023-01-13T03:51:47.786Z,10.25
2023-01-13T03:56:51.308Z,10.19
2023-01-13T04:02:06.739Z,10.07
2023-01-13T04:07:26.845Z,10.02
2023-01-13T04:12:48.340Z,10.01
2023-01-13T04:17:50.114Z,10.03
2023-01-13T04:22:51.436Z,10.10
2023-01-13T04:27:52.753Z,10.15
2023-01-13T04:32:54.101Z,10.18
2023-01-13T04:37:55.564Z,10.18
2023-01-13T04:42:56.916Z,10.18
2023-01-13T04:47:58.409Z,10.13
2023-01-13T04:53:01.088Z,10.06
2023-01-13T04:58:03.546Z,10.05
2023-01-13T05:03:05.141Z,10.06
2023-01-13T05:08:06.544Z,10.04
2023-01-13T05:13:27.712Z,10.03
2023-01-13T05:18:30.569Z,10.08
2023-01-13T05:23:50.614Z,10.14
2023-01-13T05:28:51.929Z,10.18
2023-01-13T05:33:53.249Z,10.22
2023-01-13T05:38:54.578Z,10.08
2023-01-13T05:43:55.943Z,9.96
2023-01-13T05:48:57.276Z,9.88
2023-01-13T05:53:59.129Z,9.79
2023-01-13T05:59:00.482Z,9.73
2023-01-13T06:04:01.856Z,9.66
2023-01-13T06:09:03.246Z,9.59
2023-01-13T06:14:04.595Z,9.59
2023-01-13T06:19:08.939Z,9.62
2023-01-13T06:24:10.753Z,9.70
2023-01-13T06:29:14.900Z,9.81
2023-01-13T06:34:16.392Z,9.89
2023-01-13T06:39:20.136Z,9.94
2023-01-13T06:44:23.323Z,10.00
2023-01-13T06:49:24.637Z,10.01
2023-01-13T06:54:27.767Z,10.05
2023-01-13T06:59:29.325Z,10.07
2023-01-13T07:04:30.631Z,10.05
2023-01-13T07:09:31.940Z,10.07
2023-01-13T07:14:52.140Z,10.16
2023-01-13T07:19:53.527Z,10.21
2023-01-13T07:24:54.894Z,10.25
2023-01-13T07:29:56.239Z,10.31
2023-01-13T07:34:58.545Z,10.37
2023-01-13T07:39:59.995Z,10.34
2023-01-13T07:45:02.473Z,10.34
2023-01-13T07:50:03.984Z,10.34
2023-01-13T07:55:05.566Z,10.32
2023-01-13T08:00:07.369Z,10.37
2023-01-13T08:05:08.973Z,10.47
2023-01-13T08:10:10.591Z,10.58
2023-01-13T08:15:12.292Z,10.62
2023-01-13T08:20:13.612Z,10.63
2023-01-13T08:25:14.970Z,10.63
2023-01-13T08:30:16.513Z,10.67
2023-01-13T08:35:18.199Z,10.72
2023-01-13T08:40:20.747Z,10.78
2023-01-13T08:45:22.079Z,10.78
2023-01-13T08:50:23.528Z,10.77
2023-01-13T08:55:24.878Z,10.72
2023-01-13T09:00:26.296Z,10.80
2023-01-13T09:05:27.746Z,10.90
2023-01-13T09:10:29.277Z,10.96
2023-01-13T09:15:30.616Z,10.96
2023-01-13T09:20:31.982Z,10.89
2023-01-13T09:25:36.415Z,9.74
2023-01-13T09:30:38.422Z,8.67
2023-01-13T09:35:41.231Z,8.15
2023-01-13T09:40:43.761Z,7.96
2023-01-13T09:45:45.194Z,7.99
2023-01-13T09:51:02.711Z,8.11
2023-01-13T09:56:04.878Z,8.22
2023-01-13T10:01:13.224Z,8.29
2023-01-13T10:06:14.609Z,8.34
2023-01-13T10:11:36.793Z,8.39
2023-01-13T10:16:44.557Z,8.40
2023-01-13T10:21:45.932Z,8.32
2023-01-13T10:26:58.198Z,8.29
2023-01-13T10:32:00.300Z,8.25
2023-01-13T10:37:06.586Z,8.26
2023-01-13T10:42:13.835Z,8.33
2023-01-13T10:47:28.984Z,8.33
2023-01-13T10:52:31.922Z,8.38
2023-01-13T10:57:36.115Z,8.50
2023-01-13T11:02:38.583Z,8.68
2023-01-13T11:07:41.319Z,8.70
2023-01-13T11:12:54.137Z,8.58
2023-01-13T11:18:01.546Z,8.42
2023-01-13T11:23:07.180Z,8.47
2023-01-13T11:28:17.864Z,8.43
2023-01-13T11:33:32.398Z,8.41
2023-01-13T11:38:40.368Z,8.40
2023-01-13T11:43:59.063Z,8.40
2023-01-13T11:49:00.806Z,8.37
2023-01-13T11:54:25.279Z,8.31
2023-01-13T11:59:45.166Z,8.27
2023-01-13T12:05:01.772Z,8.31
2023-01-13T12:10:07.124Z,8.39
2023-01-13T12:15:22.312Z,8.48
2023-01-13T12:20:26.550Z,8.68
2023-01-13T12:25:32.534Z,8.74
2023-01-13T12:30:44.045Z,8.68
2023-01-13T12:36:06.662Z,8.71
2023-01-13T12:41:07.994Z,8.74
2023-01-13T12:46:18.614Z,8.70
2023-01-13T12:51:24.162Z,8.69
2023-01-13T12:56:30.685Z,8.84
2023-01-13T13:01:35.980Z,8.87
2023-01-13T13:06:39.303Z,8.82
2023-01-13T13:12:01.004Z,8.75
2023-01-13T13:17:02.847Z,8.70
2023-01-13T13:22:13.614Z,8.65
2023-01-13T13:27:18.971Z,8.64
2023-01-13T13:32:46.658Z,8.83
2023-01-13T13:38:15.242Z,9.25
2023-01-13T13:43:35.358Z,10.26
2023-01-13T13:48:37.205Z,11.21
2023-01-13T13:53:41.582Z,11.18
2023-01-13T13:58:42.950Z,10.38
2023-01-13T14:03:44.624Z,9.72
2023-01-13T14:08:49.475Z,9.33
2023-01-13T14:14:00.756Z,9.09
2023-01-13T14:19:02.172Z,8.91
2023-01-13T14:24:13.903Z,8.76
2023-01-13T14:29:18.400Z,8.63
2023-01-13T14:34:32.497Z,8.60
2023-01-13T14:39:38.072Z,8.57
2023-01-13T14:44:44.018Z,8.46
2023-01-13T14:50:00.308Z,8.36
2023-01-13T14:55:04.685Z,8.32
2023-01-13T15:00:15.005Z,8.29
2023-01-13T15:05:19.388Z,8.34
2023-01-13T15:10:26.460Z,8.32
2023-01-13T15:15:35.386Z,7.47
2023-01-13T15:20:36.711Z,6.91
2023-01-13T15:25:40.008Z,6.67
2023-01-13T15:30:41.598Z,6.41
2023-01-13T15:35:44.917Z,6.42
2023-01-13T15:40:46.867Z,6.46
2023-01-13T15:46:07.172Z,6.53
2023-01-13T15:51:09.901Z,6.60
2023-01-13T15:56:15.405Z,6.65
2023-01-13T16:01:16.917Z,6.72
2023-01-13T16:06:19.562Z,6.78
2023-01-13T16:11:20.946Z,6.84
2023-01-13T16:16:24.213Z,6.87
2023-01-13T16:21:25.712Z,6.88
2023-01-13T16:26:27.806Z,6.90
2023-01-13T16:31:31.918Z,6.95
2023-01-13T16:36:34.858Z,6.99
2023-01-13T16:41:36.241Z,6.98
2023-01-13T16:46:37.602Z,6.96
2023-01-13T16:51:39.285Z,6.93
2023-01-13T16:56:40.656Z,6.89
2023-01-13T17:01:42.942Z,6.88
2023-01-13T17:06:47.169Z,6.85
2023-01-13T17:11:48.762Z,6.83
2023-01-13T17:16:51.266Z,6.79
2023-01-13T17:21:53.454Z,6.72
2023-01-13T17:26:54.781Z,6.67
2023-01-13T17:31:56.167Z,6.64
2023-01-13T17:36:57.580Z,6.67
2023-01-13T17:41:58.931Z,6.69
2023-01-13T17:47:00.292Z,6.79
2023-01-13T17:52:01.945Z,6.89
2023-01-13T17:57:03.463Z,6.98
2023-01-13T18:02:05.320Z,7.06
2023-01-13T18:07:06.945Z,7.19
2023-01-13T18:12:08.517Z,7.27
2023-01-13T18:17:10.159Z,7.24
2023-01-13T18:22:33.182Z,7.10
2023-01-13T18:27:35.879Z,7.02
2023-01-13T18:32:37.355Z,7.02
2023-01-13T18:37:40.378Z,7.04
2023-01-13T18:42:51.130Z,7.10
2023-01-13T18:47:53.438Z,7.15
2023-01-13T18:52:55.452Z,7.23
2023-01-13T18:57:57.064Z,7.25
2023-01-13T19:08:07.450Z,7.25
2023-01-13T19:13:08.828Z,7.23
2023-01-13T19:18:10.136Z,7.23
2023-01-13T19:23:12.554Z,7.20
2023-01-13T19:28:14.741Z,7.22
2023-01-13T19:33:16.143Z,7.31
2023-01-13T19:38:17.465Z,7.40
2023-01-13T19:43:37.696Z,7.44
2023-01-13T19:48:39.486Z,7.40
2023-01-13T19:53:41.184Z,7.36
2023-01-13T19:58:43.944Z,7.31
2023-01-13T20:03:45.927Z,7.34
2023-01-13T20:08:48.424Z,7.40
2023-01-13T20:13:51.988Z,7.46
2023-01-13T20:18:53.364Z,7.38
2023-01-13T20:23:54.749Z,7.28
2023-01-13T20:28:56.053Z,7.23
2023-01-13T20:33:57.370Z,7.24
2023-01-13T20:38:59.540Z,7.28
2023-01-13T20:44:00.892Z,7.28
2023-01-13T20:49:02.206Z,7.16
2023-01-13T20:54:03.819Z,7.07
2023-01-13T20:59:05.125Z,7.03
2023-01-13T21:04:08.015Z,7.02
2023-01-13T21:09:09.509Z,7.02
2023-01-13T21:14:34.084Z,7.03
2023-01-13T21:19:35.396Z,7.06
2023-01-13T21:24:36.707Z,7.15
2023-01-13T21:29:38.105Z,7.28
2023-01-13T21:34:39.469Z,7.34
2023-01-13T21:39:40.795Z,7.30
2023-01-13T21:45:01.057Z,7.27
2023-01-13T21:50:03.099Z,7.28
2023-01-13T21:55:17.065Z,7.25
2023-01-13T22:00:19.315Z,7.20
2023-01-13T22:05:21.766Z,7.13
2023-01-13T22:10:24.253Z,7.07
2023-01-13T22:15:28.081Z,7.04
2023-01-13T22:20:29.420Z,7.01
2023-01-13T22:25:30.748Z,7.00
2023-01-13T22:30:32.475Z,7.04
2023-01-13T22:35:33.812Z,7.05
2023-01-13T22:40:35.120Z,7.11
2023-01-13T22:45:36.583Z,7.18
2023-01-13T22:50:39.053Z,7.21
2023-01-13T22:55:40.378Z,7.26
2023-01-13T23:00:41.716Z,7.32
2023-01-13T23:05:43.217Z,7.33
2023-01-13T23:10:44.632Z,7.24
2023-01-13T23:15:46.010Z,7.10
2023-01-13T23:20:47.345Z,7.00
2023-01-13T23:25:49.601Z,6.84
2023-01-13T23:30:51.665Z,6.73
2023-01-13T23:35:57.200Z,6.67
2023-01-13T23:40:58.544Z,6.65
2023-01-13T23:46:03.966Z,6.61
2023-01-13T23:51:06.970Z,6.60
2023-01-13T23:56:10.929Z,6.61
